createdAt,value
2018-02-20T00:00:31.861Z,40.03
2018-02-20T00:02:59.434Z,46.63
2018-02-20T00:05:27.063Z,44.67
2018-02-20T00:07:54.652Z,40.87
2018-02-20T00:10:22.218Z,50.47
2018-02-20T00:12:50.124Z,42.53
2018-02-20T00:15:17.664Z,45.00
2018-02-20T00:17:45.251Z,41.50
2018-02-20T00:20:12.865Z,41.53
2018-02-20T00:22:40.429Z,42.63
2018-02-20T00:25:08.058Z,43.20
2018-02-20T00:27:35.613Z,43.53
2018-02-20T00:30:03.201Z,45.73
2018-02-20T00:32:30.758Z,44.23
2018-02-20T00:34:58.290Z,44.23
2018-02-20T00:37:25.900Z,55.57
2018-02-20T00:39:53.444Z,43.80
2018-02-20T00:42:20.937Z,43.63
2018-02-20T00:44:48.480Z,44.70
2018-02-20T00:47:16.072Z,55.33
2018-02-20T00:49:43.610Z,47.20
2018-02-20T00:52:11.135Z,45.53
2018-02-20T00:54:39.094Z,55.30
2018-02-20T00:57:06.699Z,48.23
2018-02-20T00:59:34.249Z,50.97
2018-02-20T01:02:01.895Z,48.63
2018-02-20T01:04:29.503Z,48.03
2018-02-20T01:06:57.093Z,54.07
2018-02-20T01:09:24.675Z,52.50
2018-02-20T01:11:52.188Z,55.47
2018-02-20T01:14:19.714Z,54.40
2018-02-20T01:16:47.257Z,51.30
2018-02-20T01:19:14.815Z,52.37
2018-02-20T01:21:42.406Z,47.23
2018-02-20T01:24:09.965Z,51.90
2018-02-20T01:26:37.532Z,53.10
2018-02-20T01:29:05.108Z,52.97
2018-02-20T01:31:32.653Z,48.23
2018-02-20T01:34:00.208Z,49.07
2018-02-20T01:36:29.854Z,49.87
2018-02-20T01:38:57.420Z,51.83
2018-02-20T01:41:24.956Z,54.77
2018-02-20T01:43:52.575Z,51.07
2018-02-20T01:46:20.145Z,44.50
2018-02-20T01:48:47.762Z,54.27
2018-02-20T01:51:15.322Z,48.77
2018-02-20T01:53:42.856Z,51.47
2018-02-20T01:56:10.427Z,53.90
2018-02-20T01:58:37.962Z,50.03
2018-02-20T02:01:05.519Z,53.00
2018-02-20T02:03:33.145Z,46.47
2018-02-20T02:06:00.673Z,46.37
2018-02-20T02:08:28.227Z,53.33
2018-02-20T02:10:55.781Z,53.73
2018-02-20T02:13:23.396Z,48.07
2018-02-20T02:15:51.018Z,46.63
2018-02-20T02:18:19.399Z,47.90
2018-02-20T02:20:47.011Z,48.80
2018-02-20T02:23:14.546Z,50.17
2018-02-20T02:25:42.075Z,49.97
2018-02-20T02:28:10.109Z,51.20
2018-02-20T02:30:37.707Z,49.73
2018-02-20T02:33:05.254Z,49.77
2018-02-20T02:35:32.909Z,45.53
2018-02-20T02:38:00.492Z,45.20
2018-02-20T02:40:28.034Z,55.43
2018-02-20T02:42:55.600Z,45.57
2018-02-20T02:45:23.192Z,51.70
2018-02-20T02:47:50.747Z,56.40
2018-02-20T02:50:18.349Z,50.53
2018-02-20T02:52:45.885Z,52.33
2018-02-20T02:55:13.382Z,53.13
2018-02-20T02:57:40.968Z,46.87
2018-02-20T03:00:08.530Z,57.90
2018-02-20T03:02:36.097Z,53.87
2018-02-20T03:05:03.646Z,50.40
2018-02-20T03:07:31.196Z,57.93
2018-02-20T03:09:58.835Z,52.63
2018-02-20T03:12:26.362Z,51.53
2018-02-20T03:14:53.921Z,56.23
2018-02-20T03:17:21.475Z,54.77
2018-02-20T03:19:49.026Z,50.73
2018-02-20T03:22:16.555Z,51.13
2018-02-20T03:24:44.152Z,51.10
2018-02-20T03:27:11.748Z,50.20
2018-02-20T03:29:39.303Z,48.07
2018-02-20T03:32:06.902Z,47.07
2018-02-20T03:34:34.477Z,48.23
2018-02-20T03:37:02.075Z,48.97
2018-02-20T03:39:29.604Z,46.57
2018-02-20T03:41:57.194Z,53.73
2018-02-20T03:44:24.846Z,52.30
2018-02-20T03:46:52.419Z,50.80
2018-02-20T03:49:19.979Z,55.60
2018-02-20T03:51:47.535Z,53.43
2018-02-20T03:54:15.095Z,57.47
2018-02-20T03:56:42.673Z,54.30
2018-02-20T03:59:10.284Z,60.97
2018-02-20T04:01:37.845Z,58.80
2018-02-20T04:04:05.448Z,54.27
2018-02-20T04:06:33.011Z,56.83
2018-02-20T04:09:00.570Z,56.13
2018-02-20T04:11:28.149Z,58.60
2018-02-20T04:13:55.742Z,55.03
2018-02-20T04:16:23.268Z,61.70
2018-02-20T04:18:50.832Z,60.30
2018-02-20T04:21:18.403Z,62.57
2018-02-20T04:23:45.960Z,60.07
2018-02-20T04:26:13.539Z,64.77
2018-02-20T04:28:41.073Z,68.37
2018-02-20T04:31:08.633Z,55.97
2018-02-20T04:33:36.249Z,59.03
2018-02-20T04:36:03.848Z,64.57
2018-02-20T04:38:31.420Z,54.23
2018-02-20T04:40:58.990Z,63.03
2018-02-20T04:43:26.608Z,56.13
2018-02-20T04:45:54.177Z,55.83
2018-02-20T04:48:21.759Z,64.13
2018-02-20T04:50:49.298Z,65.80
2018-02-20T04:53:16.826Z,64.50
2018-02-20T04:55:44.456Z,59.87
2018-02-20T04:58:12.010Z,63.07
2018-02-20T05:00:39.679Z,60.87
2018-02-20T05:03:07.219Z,60.70
2018-02-20T05:05:34.754Z,65.87
2018-02-20T05:08:02.312Z,66.53
2018-02-20T05:10:29.883Z,58.10
2018-02-20T05:12:57.464Z,53.73
2018-02-20T05:15:24.997Z,66.83
2018-02-20T05:17:52.566Z,60.93
2018-02-20T05:20:20.105Z,63.90
2018-02-20T05:22:47.689Z,60.73
2018-02-20T05:25:15.249Z,57.70
2018-02-20T05:27:42.850Z,61.40
2018-02-20T05:30:10.424Z,62.63
2018-02-20T05:32:38.009Z,55.67
2018-02-20T05:35:05.578Z,60.20
2018-02-20T05:37:33.153Z,59.90
2018-02-20T05:40:00.692Z,65.37
2018-02-20T05:42:28.221Z,60.47
2018-02-20T05:44:55.742Z,58.83
2018-02-20T05:47:23.237Z,57.27
2018-02-20T05:49:50.767Z,57.63
2018-02-20T05:52:18.341Z,59.83
2018-02-20T05:54:45.896Z,53.77
2018-02-20T05:57:13.540Z,55.90
2018-02-20T05:59:41.101Z,55.57
2018-02-20T06:02:08.638Z,61.37
2018-02-20T06:04:36.159Z,64.70
2018-02-20T06:07:03.744Z,75.23
2018-02-20T06:09:31.286Z,60.80
2018-02-20T06:11:58.894Z,61.13
2018-02-20T06:14:26.500Z,62.10
2018-02-20T06:16:54.063Z,52.73
2018-02-20T06:19:21.619Z,56.90
2018-02-20T06:21:49.190Z,59.70
2018-02-20T06:24:16.749Z,56.90
2018-02-20T06:26:44.336Z,59.60
2018-02-20T06:29:11.900Z,55.77
2018-02-20T06:31:39.538Z,62.83
2018-02-20T06:34:07.124Z,58.50
2018-02-20T06:36:34.728Z,56.40
2018-02-20T06:39:02.295Z,57.60
2018-02-20T06:41:29.866Z,58.40
2018-02-20T06:43:57.428Z,54.60
2018-02-20T06:46:24.989Z,60.20
2018-02-20T06:48:52.552Z,67.43
2018-02-20T06:51:20.078Z,55.70
2018-02-20T06:53:47.685Z,59.47
2018-02-20T06:56:15.280Z,60.97
2018-02-20T06:58:42.847Z,63.23
2018-02-20T07:01:10.386Z,63.73
2018-02-20T07:03:37.942Z,61.03
2018-02-20T07:06:05.501Z,57.90
2018-02-20T07:08:33.017Z,58.60
2018-02-20T07:11:00.544Z,60.30
2018-02-20T07:13:28.110Z,56.23
2018-02-20T07:15:55.653Z,57.77
2018-02-20T07:18:23.180Z,62.87
2018-02-20T07:20:50.746Z,61.90
2018-02-20T07:23:18.442Z,56.67
2018-02-20T07:25:45.994Z,51.73
2018-02-20T07:28:13.551Z,58.30
2018-02-20T07:30:41.083Z,58.97
2018-02-20T07:33:08.631Z,57.97
2018-02-20T07:35:36.188Z,59.27
2018-02-20T07:38:03.794Z,54.47
2018-02-20T07:40:31.348Z,64.93
2018-02-20T07:42:58.907Z,60.20
2018-02-20T07:45:26.464Z,60.17
2018-02-20T07:47:54.031Z,59.20
2018-02-20T07:50:21.579Z,63.10
2018-02-20T07:52:49.162Z,59.00
2018-02-20T07:55:16.772Z,55.93
2018-02-20T07:57:44.369Z,59.77
2018-02-20T08:00:11.874Z,58.50
2018-02-20T08:02:39.429Z,56.00
2018-02-20T08:05:07.005Z,61.37
2018-02-20T08:07:34.581Z,57.50
2018-02-20T08:10:02.139Z,61.77
2018-02-20T08:12:29.731Z,55.07
2018-02-20T08:14:57.351Z,58.23
2018-02-20T08:17:24.919Z,60.23
2018-02-20T08:19:52.502Z,58.77
2018-02-20T08:22:20.039Z,55.57
2018-02-20T08:24:47.602Z,50.70
2018-02-20T08:27:15.125Z,54.30
2018-02-20T08:29:42.674Z,63.13
2018-02-20T08:32:10.202Z,56.47
2018-02-20T08:34:37.737Z,54.10
2018-02-20T08:37:05.285Z,51.93
2018-02-20T08:39:32.840Z,53.90
2018-02-20T08:42:00.468Z,55.10
2018-02-20T08:44:28.058Z,52.03
2018-02-20T08:46:55.595Z,50.57
2018-02-20T08:49:23.169Z,49.47
2018-02-20T08:51:50.711Z,55.27
2018-02-20T08:54:18.251Z,53.43
2018-02-20T08:56:45.755Z,50.03
2018-02-20T08:59:13.315Z,52.13
2018-02-20T09:01:40.841Z,57.33
2018-02-20T09:04:08.365Z,54.13
2018-02-20T09:06:35.969Z,54.80
2018-02-20T09:09:03.526Z,58.27
2018-02-20T09:11:31.048Z,53.43
2018-02-20T09:13:58.591Z,53.00
2018-02-20T09:16:26.135Z,51.13
2018-02-20T09:18:53.688Z,52.83
2018-02-20T09:21:21.257Z,53.53
2018-02-20T09:23:48.793Z,58.90
2018-02-20T09:26:16.398Z,55.00
2018-02-20T09:28:43.921Z,56.70
2018-02-20T09:31:11.468Z,56.10
2018-02-20T09:33:38.965Z,57.43
2018-02-20T09:36:06.545Z,53.17
2018-02-20T09:38:34.085Z,53.60
2018-02-20T09:41:01.619Z,55.47
2018-02-20T09:43:29.140Z,59.40
2018-02-20T09:45:56.787Z,50.17
2018-02-20T09:48:24.332Z,55.07
2018-02-20T09:50:51.925Z,55.67
2018-02-20T09:53:19.471Z,57.57
2018-02-20T09:55:47.013Z,55.97
2018-02-20T09:58:14.586Z,60.40
2018-02-20T10:00:42.140Z,61.57
2018-02-20T10:03:09.696Z,63.57
2018-02-20T10:05:37.237Z,65.00
2018-02-20T10:08:04.795Z,64.40
2018-02-20T10:10:32.329Z,63.07
2018-02-20T10:12:59.891Z,62.17
2018-02-20T10:15:27.559Z,81.90
2018-02-20T10:17:55.072Z,68.87
2018-02-20T10:20:22.683Z,72.43
2018-02-20T10:22:50.240Z,75.03
2018-02-20T10:25:17.740Z,78.00
2018-02-20T10:27:45.309Z,68.83
2018-02-20T10:30:12.906Z,65.90
2018-02-20T10:32:40.519Z,70.63
2018-02-20T10:35:08.091Z,77.50
2018-02-20T10:37:35.668Z,64.70
2018-02-20T10:40:03.232Z,75.23
2018-02-20T10:42:30.774Z,73.50
2018-02-20T10:44:58.324Z,75.47
2018-02-20T10:47:25.858Z,70.83
2018-02-20T10:49:53.419Z,71.47
2018-02-20T10:52:20.972Z,66.23
2018-02-20T10:54:48.539Z,67.00
2018-02-20T10:57:16.060Z,73.00
2018-02-20T10:59:43.609Z,74.50
2018-02-20T11:02:11.151Z,75.10
2018-02-20T11:04:38.705Z,66.00
2018-02-20T11:07:06.267Z,68.33
2018-02-20T11:09:33.811Z,74.30
2018-02-20T11:12:01.547Z,74.87
2018-02-20T11:14:29.068Z,68.90
2018-02-20T11:16:56.580Z,71.87
2018-02-20T11:19:24.151Z,63.70
2018-02-20T11:21:51.673Z,70.43
2018-02-20T11:24:19.201Z,71.23
2018-02-20T11:26:46.752Z,73.90
2018-02-20T11:29:14.326Z,74.67
2018-02-20T11:31:41.968Z,81.67
2018-02-20T11:34:09.492Z,74.40
2018-02-20T11:36:37.008Z,77.73
2018-02-20T11:39:04.693Z,74.07
2018-02-20T11:41:32.214Z,79.50
2018-02-20T11:43:59.724Z,76.53
2018-02-20T11:46:27.250Z,78.13
2018-02-20T11:48:54.792Z,76.33
2018-02-20T11:51:22.329Z,70.07
2018-02-20T11:53:49.976Z,87.87
2018-02-20T11:56:17.542Z,70.83
2018-02-20T11:58:45.079Z,78.73
2018-02-20T12:01:12.650Z,76.77
2018-02-20T12:03:40.193Z,64.97
2018-02-20T12:06:07.853Z,75.63
2018-02-20T12:08:35.441Z,75.07
2018-02-20T12:11:03.010Z,79.30
2018-02-20T12:13:30.546Z,79.73
2018-02-20T12:15:58.095Z,78.53
2018-02-20T12:18:25.658Z,77.27
2018-02-20T12:20:53.238Z,83.53
2018-02-20T12:23:20.816Z,76.10
2018-02-20T12:25:48.334Z,78.77
2018-02-20T12:28:15.978Z,80.00
2018-02-20T12:30:43.550Z,81.00
2018-02-20T12:33:11.118Z,83.63
2018-02-20T12:35:38.684Z,79.20
2018-02-20T12:38:06.228Z,84.37
2018-02-20T12:40:33.769Z,87.07
2018-02-20T12:43:01.343Z,81.10
2018-02-20T12:45:28.861Z,81.47
2018-02-20T12:47:56.438Z,84.47
2018-02-20T12:50:23.962Z,84.10
2018-02-20T12:52:51.508Z,83.97
2018-02-20T12:55:19.086Z,90.37
2018-02-20T12:57:46.645Z,86.30
2018-02-20T13:00:14.197Z,78.77
2018-02-20T13:02:41.738Z,79.63
2018-02-20T13:05:09.307Z,82.90
2018-02-20T13:07:36.890Z,79.97
2018-02-20T13:10:04.449Z,87.27
2018-02-20T13:12:32.033Z,86.80
2018-02-20T13:14:59.637Z,83.53
2018-02-20T13:17:27.154Z,79.33
2018-02-20T13:19:54.735Z,91.17
2018-02-20T13:22:22.295Z,82.87
2018-02-20T13:24:49.904Z,84.97
2018-02-20T13:27:17.433Z,90.33
2018-02-20T13:29:44.978Z,85.10
2018-02-20T13:32:12.541Z,89.23
2018-02-20T13:34:40.115Z,73.50
2018-02-20T13:37:07.672Z,80.03
2018-02-20T13:39:35.221Z,84.80
2018-02-20T13:42:02.749Z,79.60
2018-02-20T13:44:30.362Z,91.77
2018-02-20T13:46:58.003Z,83.27
2018-02-20T13:49:25.543Z,89.70
2018-02-20T13:51:53.071Z,82.03
2018-02-20T13:54:20.634Z,91.10
2018-02-20T13:56:48.165Z,90.23
2018-02-20T13:59:15.710Z,84.90
2018-02-20T14:01:43.262Z,86.07
2018-02-20T14:04:11.621Z,89.97
2018-02-20T14:06:39.215Z,93.43
2018-02-20T14:09:06.737Z,79.53
2018-02-20T14:11:34.305Z,90.03
2018-02-20T14:14:01.841Z,89.90
2018-02-20T14:16:29.396Z,90.77
2018-02-20T14:18:56.914Z,99.97
2018-02-20T14:21:24.466Z,96.00
2018-02-20T14:23:52.003Z,96.90
2018-02-20T14:26:19.510Z,94.17
2018-02-20T14:28:47.033Z,85.67
2018-02-20T14:31:16.590Z,87.60
2018-02-20T14:33:44.122Z,89.17
2018-02-20T14:36:11.661Z,91.53
2018-02-20T14:38:39.290Z,86.70
2018-02-20T14:41:06.847Z,93.27
2018-02-20T14:43:34.398Z,90.07
2018-02-20T14:46:01.964Z,88.43
2018-02-20T14:48:29.583Z,86.10
2018-02-20T14:50:57.237Z,90.37
2018-02-20T14:53:24.756Z,97.67
2018-02-20T14:55:52.396Z,92.97
2018-02-20T14:58:20.193Z,93.70
2018-02-20T15:00:48.897Z,93.30
2018-02-20T15:03:16.720Z,95.90
2018-02-20T15:05:44.473Z,93.07
2018-02-20T15:08:12.254Z,98.63
2018-02-20T15:10:39.919Z,89.57
2018-02-20T15:13:07.791Z,82.37
2018-02-20T15:15:35.692Z,97.37
2018-02-20T15:18:03.537Z,99.17
2018-02-20T15:20:31.442Z,92.17
2018-02-20T15:22:59.266Z,91.60
2018-02-20T15:25:27.079Z,99.07
2018-02-20T15:27:54.944Z,84.57
2018-02-20T15:30:22.840Z,94.70
2018-02-20T15:32:50.607Z,96.90
2018-02-20T15:35:18.483Z,92.83
2018-02-20T15:37:46.299Z,97.57
2018-02-20T15:40:14.026Z,99.23
2018-02-20T15:42:41.793Z,88.80
2018-02-20T15:45:09.593Z,99.83
2018-02-20T15:47:37.481Z,94.93
2018-02-20T15:50:05.307Z,91.63
2018-02-20T15:52:33.070Z,93.30
2018-02-20T15:55:00.648Z,90.10
2018-02-20T15:57:28.210Z,92.03
2018-02-20T15:59:55.768Z,91.97
2018-02-20T16:02:23.312Z,96.97
2018-02-20T16:04:50.862Z,89.73
2018-02-20T16:07:18.384Z,91.57
2018-02-20T16:09:45.886Z,98.50
2018-02-20T16:12:13.413Z,88.63
2018-02-20T16:14:40.957Z,97.53
2018-02-20T16:17:08.453Z,97.07
2018-02-20T16:19:35.977Z,91.33
2018-02-20T16:22:03.627Z,100.80
2018-02-20T16:24:31.146Z,96.43
2018-02-20T16:26:58.691Z,91.27
2018-02-20T16:29:26.266Z,92.97
2018-02-20T16:31:53.793Z,98.23
2018-02-20T16:34:21.349Z,111.30
2018-02-20T16:36:48.933Z,93.80
2018-02-20T16:39:16.600Z,96.13
2018-02-20T16:41:44.160Z,106.90
2018-02-20T16:44:11.709Z,102.03
2018-02-20T16:46:39.332Z,100.33
2018-02-20T16:49:06.909Z,103.07
2018-02-20T16:51:34.446Z,110.23
2018-02-20T16:54:02.008Z,101.47
2018-02-20T16:56:29.662Z,95.13
2018-02-20T16:58:57.276Z,104.00
2018-02-20T17:01:24.823Z,112.80
2018-02-20T17:03:52.385Z,94.50
2018-02-20T17:06:20.003Z,101.93
2018-02-20T17:08:47.560Z,109.13
2018-02-20T17:11:15.082Z,102.13
2018-02-20T17:13:42.655Z,105.23
2018-02-20T17:16:10.207Z,103.83
2018-02-20T17:18:37.801Z,111.43
2018-02-20T17:21:05.355Z,101.93
2018-02-20T17:23:33.101Z,105.67
2018-02-20T17:26:00.629Z,106.77
2018-02-20T17:28:28.140Z,109.63
2018-02-20T17:30:55.677Z,109.40
2018-02-20T17:33:23.199Z,110.87
2018-02-20T17:35:50.738Z,102.10
2018-02-20T17:38:18.336Z,114.40
2018-02-20T17:40:45.882Z,107.10
2018-02-20T17:43:13.442Z,112.07
2018-02-20T17:45:41.136Z,109.90
2018-02-20T17:48:08.749Z,111.23
2018-02-20T17:50:36.709Z,111.67
2018-02-20T17:53:04.272Z,112.47
2018-02-20T17:55:31.919Z,116.97
2018-02-20T17:57:59.492Z,111.57
2018-02-20T18:00:27.066Z,115.10
2018-02-20T18:02:54.672Z,119.30
2018-02-20T18:05:22.231Z,116.77
2018-02-20T18:07:49.775Z,119.93
2018-02-20T18:10:17.295Z,119.03
2018-02-20T18:12:44.859Z,114.43
2018-02-20T18:15:12.478Z,116.67
2018-02-20T18:17:40.026Z,109.63
2018-02-20T18:20:07.644Z,116.10
2018-02-20T18:22:35.243Z,120.03
2018-02-20T18:25:02.804Z,118.93
2018-02-20T18:27:30.361Z,125.37
2018-02-20T18:29:57.919Z,115.93
2018-02-20T18:32:27.287Z,123.00
2018-02-20T18:34:54.822Z,117.70
2018-02-20T18:37:22.388Z,120.80
2018-02-20T18:39:49.944Z,122.83
2018-02-20T18:42:17.504Z,120.67
2018-02-20T18:44:45.120Z,120.30
2018-02-20T18:47:12.723Z,133.93
2018-02-20T18:49:40.428Z,116.67
2018-02-20T18:52:07.993Z,131.13
2018-02-20T18:54:35.552Z,128.50
2018-02-20T18:57:03.110Z,127.23
2018-02-20T18:59:30.746Z,132.90
2018-02-20T19:01:58.279Z,120.37
2018-02-20T19:04:25.805Z,125.17
2018-02-20T19:06:53.349Z,132.83
2018-02-20T19:09:20.916Z,126.33
2018-02-20T19:11:48.509Z,124.20
2018-02-20T19:14:16.176Z,120.43
2018-02-20T19:16:43.759Z,127.70
2018-02-20T19:19:11.326Z,127.80
2018-02-20T19:21:38.877Z,130.00
2018-02-20T19:24:06.404Z,134.53
2018-02-20T19:26:33.941Z,124.20
2018-02-20T19:29:01.479Z,120.27
2018-02-20T19:31:29.048Z,128.57
2018-02-20T19:33:56.583Z,128.03
2018-02-20T19:36:24.132Z,131.97
2018-02-20T19:38:51.772Z,127.60
2018-02-20T19:41:19.321Z,121.80
2018-02-20T19:43:46.914Z,121.57
2018-02-20T19:46:14.590Z,128.40
2018-02-20T19:48:42.120Z,139.13
2018-02-20T19:51:09.676Z,126.07
2018-02-20T19:53:37.230Z,127.83
2018-02-20T19:56:04.786Z,134.40
2018-02-20T19:58:32.486Z,127.33
2018-02-20T20:01:00.022Z,129.43
2018-02-20T20:03:27.588Z,123.33
2018-02-20T20:05:55.284Z,131.97
2018-02-20T20:08:22.797Z,127.27
2018-02-20T20:10:50.337Z,126.33
2018-02-20T20:13:17.864Z,127.67
2018-02-20T20:15:45.422Z,128.27
2018-02-20T20:18:12.986Z,123.97
2018-02-20T20:20:47.935Z,114.40
2018-02-20T20:23:08.203Z,118.33
2018-02-20T20:25:36.374Z,123.17
2018-02-20T20:28:03.987Z,115.07
2018-02-20T20:30:31.562Z,118.97
2018-02-20T20:32:59.069Z,115.33
2018-02-20T20:35:26.680Z,118.67
2018-02-20T20:37:54.207Z,112.17
2018-02-20T20:40:21.775Z,119.17
2018-02-20T20:42:49.488Z,126.23
2018-02-20T20:45:17.051Z,116.70
2018-02-20T20:47:44.795Z,111.43
2018-02-20T20:50:12.588Z,107.23
2018-02-20T20:52:40.341Z,115.83
2018-02-20T20:55:07.905Z,115.50
2018-02-20T20:57:35.993Z,106.17
2018-02-20T21:00:03.640Z,111.97
2018-02-20T21:02:31.366Z,109.13
2018-02-20T21:04:59.867Z,108.87
2018-02-20T21:07:27.405Z,110.73
2018-02-20T21:09:54.974Z,114.13
2018-02-20T21:12:22.993Z,126.45
2018-02-20T21:14:50.771Z,121.33
2018-02-20T21:17:18.504Z,109.27
2018-02-20T21:19:46.113Z,98.10
2018-02-20T21:22:13.696Z,103.57
2018-02-20T21:24:42.356Z,103.60
2018-02-20T21:27:09.967Z,91.80
2018-02-20T21:29:37.654Z,92.33
2018-02-20T21:32:05.371Z,98.13
2018-02-20T21:34:32.965Z,102.43
2018-02-20T21:37:00.566Z,92.83
2018-02-20T21:39:28.149Z,102.43
2018-02-20T21:41:55.861Z,94.43
2018-02-20T21:44:23.485Z,102.80
2018-02-20T21:46:51.430Z,107.07
2018-02-20T21:49:19.406Z,94.97
2018-02-20T21:51:46.982Z,100.77
2018-02-20T21:54:14.641Z,96.17
2018-02-20T21:56:42.411Z,88.90
2018-02-20T21:59:09.970Z,94.03
2018-02-20T22:01:37.579Z,88.57
2018-02-20T22:04:05.109Z,89.93
2018-02-20T22:06:32.620Z,95.80
2018-02-20T22:09:00.213Z,85.03
2018-02-20T22:11:27.739Z,85.53
2018-02-20T22:13:55.431Z,87.57
2018-02-20T22:16:23.536Z,85.63
2018-02-20T22:18:51.093Z,87.00
2018-02-20T22:21:18.816Z,81.87
2018-02-20T22:23:46.429Z,84.40
2018-02-20T22:26:14.060Z,75.57
2018-02-20T22:28:41.669Z,75.50
2018-02-20T22:31:09.211Z,74.80
2018-02-20T22:33:36.876Z,74.07
2018-02-20T22:36:04.431Z,74.37
2018-02-20T22:38:31.987Z,65.47
2018-02-20T22:40:59.551Z,69.43
2018-02-20T22:43:27.118Z,77.07
2018-02-20T22:45:54.665Z,69.10
2018-02-20T22:48:22.225Z,67.07
2018-02-20T22:50:49.794Z,66.07
2018-02-20T22:53:17.456Z,62.97
2018-02-20T22:55:45.003Z,67.33
2018-02-20T22:58:12.580Z,66.27
2018-02-20T23:00:40.122Z,63.43
2018-02-20T23:03:07.673Z,63.07
2018-02-20T23:05:35.346Z,67.60
2018-02-20T23:08:02.919Z,66.50
2018-02-20T23:10:30.896Z,54.43
2018-02-20T23:12:58.505Z,59.87
2018-02-20T23:15:26.061Z,62.30
2018-02-20T23:17:53.610Z,61.43
2018-02-20T23:20:21.245Z,62.57
2018-02-20T23:22:48.904Z,58.33
2018-02-20T23:25:16.446Z,58.77
2018-02-20T23:27:43.987Z,65.63
2018-02-20T23:30:11.581Z,58.93
2018-02-20T23:32:39.147Z,64.60
2018-02-20T23:35:06.776Z,61.40
2018-02-20T23:37:34.370Z,60.63
2018-02-20T23:40:02.070Z,58.23
2018-02-20T23:42:29.791Z,57.83
2018-02-20T23:44:57.384Z,50.97
2018-02-20T23:47:24.975Z,56.13
2018-02-20T23:49:52.554Z,53.93
2018-02-20T23:52:22.225Z,58.37
2018-02-20T23:54:49.983Z,49.53
2018-02-20T23:57:17.563Z,54.60
2018-02-20T23:59:51.982Z,62.70
